createdAt,value
2023-04-09T00:00:10.720Z,100109.25
2023-04-09T00:02:16.518Z,100100.38
2023-04-09T00:04:19.109Z,100106.38
2023-04-09T00:06:21.641Z,100096.47
2023-04-09T00:08:24.339Z,100105.84
2023-04-09T00:10:26.811Z,100097.84
2023-04-09T00:12:30.690Z,100099.69
2023-04-09T00:14:34.678Z,100095.34
2023-04-09T00:16:37.431Z,100098.72
2023-04-09T00:18:40.204Z,100114.03
2023-04-09T00:20:42.880Z,100104.47
2023-04-09T00:22:45.420Z,100114.97
2023-04-09T00:24:47.959Z,100110.84
2023-04-09T00:26:50.578Z,100113.19
2023-04-09T00:28:53.635Z,100114.31
2023-04-09T00:30:57.778Z,100119.50
2023-04-09T00:33:00.307Z,100117.19
2023-04-09T00:35:02.963Z,100114.97
2023-04-09T00:37:05.850Z,100113.03
2023-04-09T00:39:08.439Z,100101.16
2023-04-09T00:41:10.979Z,100091.44
2023-04-09T00:43:13.479Z,100098.84
2023-04-09T00:45:15.979Z,100099.84
2023-04-09T00:47:20.080Z,100095.00
2023-04-09T00:49:25.161Z,100094.03
2023-04-09T00:51:28.989Z,100085.19
2023-04-09T00:53:31.643Z,100082.00
2023-04-09T00:55:34.444Z,100084.16
2023-04-09T00:57:37.999Z,100069.19
2023-04-09T00:59:40.618Z,100080.75
2023-04-09T01:01:43.782Z,100076.25
2023-04-09T01:03:48.095Z,100077.91
2023-04-09T01:05:55.060Z,100071.53
2023-04-09T01:08:02.231Z,100070.22
2023-04-09T01:10:11.079Z,100075.72
2023-04-09T01:12:18.036Z,100081.72
2023-04-09T01:14:23.121Z,100079.53
2023-04-09T01:16:29.258Z,100081.88
2023-04-09T01:18:36.471Z,100076.72
2023-04-09T01:20:42.837Z,100065.88
2023-04-09T01:22:50.397Z,100075.56
2023-04-09T01:25:00.997Z,100073.34
2023-04-09T01:27:11.704Z,100076.84
2023-04-09T01:29:26.226Z,100070.88
2023-04-09T01:31:30.279Z,100079.22
2023-04-09T01:33:33.235Z,100084.22
2023-04-09T01:35:36.307Z,100080.88
2023-04-09T01:37:39.354Z,100087.41
2023-04-09T01:39:42.546Z,100087.31
2023-04-09T01:41:45.834Z,100080.28
2023-04-09T01:43:50.116Z,100082.78
2023-04-09T01:45:54.200Z,100091.16
2023-04-09T01:47:57.317Z,100088.94
2023-04-09T01:50:00.559Z,100084.09
2023-04-09T01:52:03.787Z,100097.97
2023-04-09T01:54:06.505Z,100097.31
2023-04-09T01:56:09.925Z,100100.31
2023-04-09T01:58:12.516Z,100096.47
2023-04-09T02:00:15.516Z,100099.50
2023-04-09T02:02:28.697Z,100094.66
2023-04-09T02:04:34.048Z,100094.47
2023-04-09T02:06:39.416Z,100090.63
2023-04-09T02:08:44.596Z,100094.75
2023-04-09T02:10:53.651Z,100092.28
2023-04-09T02:12:57.027Z,100095.59
2023-04-09T02:15:01.751Z,100101.78
2023-04-09T02:17:04.467Z,100102.25
2023-04-09T02:19:08.481Z,100096.06
2023-04-09T02:21:13.972Z,100091.91
2023-04-09T02:23:17.519Z,100097.25
2023-04-09T02:25:20.242Z,100101.31
2023-04-09T02:27:22.696Z,100098.25
2023-04-09T02:29:25.308Z,100094.66
2023-04-09T02:31:27.808Z,100097.25
2023-04-09T02:33:30.718Z,100091.34
2023-04-09T02:35:34.992Z,100090.97
2023-04-09T02:37:37.757Z,100096.94
2023-04-09T02:39:40.167Z,100096.00
2023-04-09T02:41:42.717Z,100096.31
2023-04-09T02:43:45.185Z,100100.66
2023-04-09T02:45:47.880Z,100097.97
2023-04-09T02:47:50.426Z,100094.47
2023-04-09T02:49:53.078Z,100089.97
2023-04-09T02:51:57.082Z,100097.31
2023-04-09T02:53:59.812Z,100095.31
2023-04-09T02:56:02.238Z,100099.34
2023-04-09T02:58:04.833Z,100094.00
2023-04-09T03:00:07.999Z,100105.66
2023-04-09T03:02:10.869Z,100100.00
2023-04-09T03:04:13.553Z,100096.94
2023-04-09T03:06:16.239Z,100100.66
2023-04-09T03:08:20.239Z,100097.47
2023-04-09T03:10:22.806Z,100095.66
2023-04-09T03:12:25.353Z,100087.69
2023-04-09T03:14:27.985Z,100084.69
2023-04-09T03:16:30.429Z,100088.53
2023-04-09T03:18:32.992Z,100087.50
2023-04-09T03:20:39.410Z,100093.03
2023-04-09T03:22:44.280Z,100086.38
2023-04-09T03:24:58.464Z,100084.91
2023-04-09T03:27:01.248Z,100086.44
2023-04-09T03:29:05.271Z,100093.47
2023-04-09T03:31:08.537Z,100093.34
2023-04-09T03:33:13.502Z,100096.56
2023-04-09T03:35:43.642Z,100092.16
2023-04-09T03:37:48.327Z,100083.31
2023-04-09T03:39:53.761Z,100084.53
2023-04-09T03:41:59.642Z,100096.50
2023-04-09T03:44:06.415Z,100093.00
2023-04-09T03:46:21.791Z,100089.69
2023-04-09T03:48:24.523Z,100088.38
2023-04-09T03:50:27.402Z,100093.69
2023-04-09T03:52:31.842Z,100087.91
2023-04-09T03:54:40.003Z,100090.41
2023-04-09T03:56:48.733Z,100096.22
2023-04-09T03:58:58.299Z,100093.91
2023-04-09T04:01:10.279Z,100098.13
2023-04-09T04:03:19.761Z,100099.75
2023-04-09T04:05:40.874Z,100103.56
2023-04-09T04:07:45.942Z,100105.25
2023-04-09T04:09:53.337Z,100100.63
2023-04-09T04:11:59.038Z,100099.94
2023-04-09T04:14:17.247Z,100103.94
2023-04-09T04:16:23.997Z,100098.41
2023-04-09T04:18:27.956Z,100096.91
2023-04-09T04:20:33.196Z,100095.09
2023-04-09T04:22:41.338Z,100085.97
2023-04-09T04:24:44.117Z,100082.13
2023-04-09T04:26:50.596Z,100082.97
2023-04-09T04:28:55.542Z,100085.09
2023-04-09T04:31:26.026Z,100088.59
2023-04-09T04:33:31.706Z,100078.91
2023-04-09T04:35:34.892Z,100091.06
2023-04-09T04:37:40.888Z,100093.41
2023-04-09T04:39:43.641Z,100093.41
2023-04-09T04:41:50.186Z,100098.88
2023-04-09T04:43:57.677Z,100099.66
2023-04-09T04:46:01.292Z,100111.00
2023-04-09T04:48:08.165Z,100111.31
2023-04-09T04:50:11.200Z,100115.63
2023-04-09T04:52:27.441Z,100112.22
2023-04-09T04:54:30.266Z,100105.94
2023-04-09T04:56:34.287Z,100104.53
2023-04-09T04:58:52.058Z,100107.84
2023-04-09T05:00:57.632Z,100108.16
2023-04-09T05:03:00.474Z,100114.28
2023-04-09T05:05:24.153Z,100116.94
2023-04-09T05:07:29.676Z,100112.44
2023-04-09T05:09:33.384Z,100111.19
2023-04-09T05:11:39.966Z,100111.19
2023-04-09T05:13:49.155Z,100111.03
2023-04-09T05:15:52.464Z,100107.06
2023-04-09T05:17:57.241Z,100118.78
2023-04-09T05:19:59.996Z,100105.72
2023-04-09T05:22:12.117Z,100116.34
2023-04-09T05:24:15.004Z,100114.84
2023-04-09T05:26:17.524Z,100115.03
2023-04-09T05:28:28.035Z,100114.50
2023-04-09T05:30:40.802Z,100114.31
2023-04-09T05:32:44.866Z,100115.16
2023-04-09T05:34:47.675Z,100119.41
2023-04-09T05:36:51.375Z,100127.72
2023-04-09T05:38:58.350Z,100128.72
2023-04-09T05:41:01.458Z,100129.03
2023-04-09T05:43:04.400Z,100129.03
2023-04-09T05:45:16.934Z,100128.00
2023-04-09T05:47:26.849Z,100123.69
2023-04-09T05:49:37.880Z,100130.41
2023-04-09T05:51:45.981Z,100113.88
2023-04-09T05:53:53.451Z,100121.72
2023-04-09T05:55:58.250Z,100127.88
2023-04-09T05:58:04.108Z,100129.63
2023-04-09T06:00:08.467Z,100128.78
2023-04-09T06:02:19.076Z,100119.78
2023-04-09T06:04:21.917Z,100122.00
2023-04-09T06:06:24.650Z,100118.50
2023-04-09T06:08:27.079Z,100127.66
2023-04-09T06:10:30.060Z,100127.47
2023-04-09T06:12:35.752Z,100132.53
2023-04-09T06:14:39.280Z,100138.81
2023-04-09T06:16:41.750Z,100135.50
2023-04-09T06:18:46.381Z,100135.41
2023-04-09T06:20:48.877Z,100139.47
2023-04-09T06:22:51.412Z,100140.66
2023-04-09T06:24:54.065Z,100146.50
2023-04-09T06:26:56.891Z,100148.31
2023-04-09T06:29:01.099Z,100151.25
2023-04-09T06:31:03.666Z,100154.13
2023-04-09T06:33:06.358Z,100151.06
2023-04-09T06:35:10.900Z,100152.00
2023-04-09T06:37:13.497Z,100153.38
2023-04-09T06:39:16.014Z,100159.19
2023-04-09T06:41:21.157Z,100161.69
2023-04-09T06:43:23.828Z,100163.44
2023-04-09T06:45:30.157Z,100171.47
2023-04-09T06:47:32.735Z,100169.06
2023-04-09T06:49:35.358Z,100167.22
2023-04-09T06:51:37.883Z,100171.72
2023-04-09T06:53:40.422Z,100176.53
2023-04-09T06:55:43.656Z,100179.03
2023-04-09T06:57:46.256Z,100173.03
2023-04-09T06:59:49.069Z,100177.44
2023-04-09T07:01:54.551Z,100181.69
2023-04-09T07:03:57.732Z,100167.69
2023-04-09T07:06:00.498Z,100173.28
2023-04-09T07:08:03.148Z,100172.34
2023-04-09T07:10:06.842Z,100168.13
2023-04-09T07:12:09.466Z,100170.81
2023-04-09T07:14:11.907Z,100177.25
2023-04-09T07:16:14.597Z,100174.72
2023-04-09T07:18:18.688Z,100177.69
2023-04-09T07:20:21.307Z,100179.28
2023-04-09T07:22:24.463Z,100173.94
2023-04-09T07:24:27.037Z,100179.72
2023-04-09T07:26:30.099Z,100183.25
2023-04-09T07:28:33.200Z,100181.75
2023-04-09T07:30:35.958Z,100180.91
2023-04-09T07:32:38.677Z,100179.94
2023-04-09T07:34:43.156Z,100186.13
2023-04-09T07:36:45.763Z,100188.31
2023-04-09T07:38:48.241Z,100182.41
2023-04-09T07:40:50.978Z,100187.13
2023-04-09T07:42:54.288Z,100186.91
2023-04-09T07:44:59.946Z,100191.53
2023-04-09T07:47:02.626Z,100188.22
2023-04-09T07:49:05.230Z,100187.31
2023-04-09T07:51:09.676Z,100192.03
2023-04-09T07:53:13.008Z,100188.34
2023-04-09T07:55:16.758Z,100190.09
2023-04-09T07:57:19.981Z,100188.34
2023-04-09T07:59:22.518Z,100189.97
2023-04-09T08:01:26.519Z,100185.91
2023-04-09T08:03:29.347Z,100191.22
2023-04-09T08:05:32.123Z,100189.28
2023-04-09T08:07:37.223Z,100190.63
2023-04-09T08:09:39.909Z,100195.09
2023-04-09T08:11:42.776Z,100191.50
2023-04-09T08:13:45.418Z,100190.25
2023-04-09T08:15:47.809Z,100190.59
2023-04-09T08:17:50.873Z,100194.78
2023-04-09T08:19:53.384Z,100196.59
2023-04-09T08:21:56.997Z,100199.91
2023-04-09T08:24:05.867Z,100197.47
2023-04-09T08:26:08.385Z,100205.00
2023-04-09T08:28:10.839Z,100200.47
2023-04-09T08:30:13.564Z,100204.53
2023-04-09T08:32:16.459Z,100206.69
2023-04-09T08:34:21.408Z,100204.88
2023-04-09T08:36:23.936Z,100200.59
2023-04-09T08:38:26.490Z,100212.28
2023-04-09T08:40:34.521Z,100210.19
2023-04-09T08:42:37.802Z,100202.72
2023-04-09T08:44:41.369Z,100212.19
2023-04-09T08:46:43.919Z,100212.25
2023-04-09T08:48:47.500Z,100208.50
2023-04-09T08:50:50.102Z,100207.31
2023-04-09T08:52:53.522Z,100210.41
2023-04-09T08:54:56.625Z,100211.06
2023-04-09T08:57:00.718Z,100208.03
2023-04-09T08:59:03.445Z,100207.28
2023-04-09T09:01:18.565Z,100207.94
2023-04-09T09:03:21.400Z,100215.78
2023-04-09T09:05:35.597Z,100213.78
2023-04-09T09:07:53.175Z,100210.78
2023-04-09T09:09:56.790Z,100207.66
2023-04-09T09:12:02.105Z,100204.44
2023-04-09T09:14:05.297Z,100209.75
2023-04-09T09:16:14.616Z,100204.88
2023-04-09T09:18:17.920Z,100209.50
2023-04-09T09:20:21.432Z,100206.09
2023-04-09T09:22:24.979Z,100210.13
2023-04-09T09:24:27.718Z,100212.91
2023-04-09T09:26:30.872Z,100205.34
2023-04-09T09:28:36.876Z,100205.53
2023-04-09T09:30:41.176Z,100207.00
2023-04-09T09:32:44.094Z,100201.13
2023-04-09T09:34:58.117Z,100204.13
2023-04-09T09:37:00.633Z,100204.13
2023-04-09T09:39:10.621Z,100206.00
2023-04-09T09:41:19.874Z,100205.38
2023-04-09T09:43:22.481Z,100199.81
2023-04-09T09:45:26.881Z,100210.38
2023-04-09T09:47:30.140Z,100202.75
2023-04-09T09:49:32.694Z,100199.88
2023-04-09T09:51:37.596Z,100203.38
2023-04-09T09:53:40.860Z,100206.28
2023-04-09T09:55:49.275Z,100195.31
2023-04-09T09:57:53.680Z,100196.09
2023-04-09T10:00:01.092Z,100199.59
2023-04-09T10:02:07.902Z,100201.66
2023-04-09T10:04:14.323Z,100203.31
2023-04-09T10:06:17.123Z,100199.56
2023-04-09T10:08:20.039Z,100200.59
2023-04-09T10:10:23.917Z,100197.47
2023-04-09T10:12:27.535Z,100187.66
2023-04-09T10:14:30.320Z,100191.75
2023-04-09T10:16:33.740Z,100195.53
2023-04-09T10:18:37.916Z,100195.09
2023-04-09T10:20:42.556Z,100196.16
2023-04-09T10:22:46.316Z,100201.94
2023-04-09T10:24:49.085Z,100197.41
2023-04-09T10:26:54.671Z,100195.94
2023-04-09T10:29:09.659Z,100190.56
2023-04-09T10:31:12.315Z,100192.22
2023-04-09T10:33:15.815Z,100185.38
2023-04-09T10:35:25.598Z,100190.38
2023-04-09T10:37:28.995Z,100186.63
2023-04-09T10:39:32.319Z,100186.81
2023-04-09T10:41:35.039Z,100181.03
2023-04-09T10:43:37.658Z,100182.91
2023-04-09T10:45:41.692Z,100185.19
2023-04-09T10:47:46.571Z,100186.00
2023-04-09T10:49:49.880Z,100183.94
2023-04-09T10:51:54.594Z,100189.94
2023-04-09T10:53:58.199Z,100188.91
2023-04-09T10:56:01.748Z,100187.88
2023-04-09T10:58:04.925Z,100184.78
2023-04-09T11:00:08.160Z,100179.78
2023-04-09T11:02:18.525Z,100185.81
2023-04-09T11:04:21.955Z,100177.50
2023-04-09T11:06:25.373Z,100180.19
2023-04-09T11:08:33.013Z,100176.47
2023-04-09T11:10:35.999Z,100175.06
2023-04-09T11:12:38.550Z,100188.28
2023-04-09T11:14:40.981Z,100182.06
2023-04-09T11:16:43.589Z,100181.03
2023-04-09T11:18:46.239Z,100179.78
2023-04-09T11:20:48.883Z,100181.03
2023-04-09T11:22:51.958Z,100172.75
2023-04-09T11:24:56.040Z,100174.84
2023-04-09T11:26:58.497Z,100174.22
2023-04-09T11:29:05.125Z,100172.97
2023-04-09T11:31:07.742Z,100178.56
2023-04-09T11:33:10.791Z,100176.72
2023-04-09T11:35:14.530Z,100180.63
2023-04-09T11:37:17.524Z,100177.53
2023-04-09T11:39:20.054Z,100175.25
2023-04-09T11:41:34.496Z,100183.53
2023-04-09T11:43:37.084Z,100182.91
2023-04-09T11:45:39.883Z,100185.19
2023-04-09T11:47:43.335Z,100181.66
2023-04-09T11:49:49.766Z,100184.34
2023-04-09T11:51:52.765Z,100182.69
2023-04-09T11:53:55.278Z,100183.31
2023-04-09T11:55:57.836Z,100182.69
2023-04-09T11:58:02.002Z,100188.06
2023-04-09T12:00:07.234Z,100178.34
2023-04-09T12:02:11.029Z,100189.91
2023-04-09T12:04:19.912Z,100186.19
2023-04-09T12:06:25.064Z,100191.81
2023-04-09T12:08:28.077Z,100183.09
2023-04-09T12:10:31.917Z,100188.25
2023-04-09T12:12:40.397Z,100188.28
2023-04-09T12:14:48.036Z,100184.16
2023-04-09T12:16:53.472Z,100192.00
2023-04-09T12:18:56.155Z,100193.69
2023-04-09T12:20:58.683Z,100195.94
2023-04-09T12:23:03.715Z,100190.13
2023-04-09T12:25:07.047Z,100191.78
2023-04-09T12:27:11.220Z,100186.81
2023-04-09T12:29:13.837Z,100187.25
2023-04-09T12:31:18.136Z,100186.84
2023-04-09T12:33:20.836Z,100183.50
2023-04-09T12:35:23.361Z,100189.34
2023-04-09T12:37:26.356Z,100187.25
2023-04-09T12:39:28.787Z,100182.69
2023-04-09T12:41:31.587Z,100187.25
2023-04-09T12:43:34.125Z,100191.78
2023-04-09T12:45:37.026Z,100188.69
2023-04-09T12:47:41.616Z,100191.81
2023-04-09T12:49:46.769Z,100183.34
2023-04-09T12:51:49.319Z,100187.19
2023-04-09T12:53:52.251Z,100188.91
2023-04-09T12:55:54.930Z,100192.19
2023-04-09T12:57:57.628Z,100184.38
2023-04-09T13:00:00.168Z,100190.56
2023-04-09T13:02:02.947Z,100193.25
2023-04-09T13:04:07.053Z,100184.75
2023-04-09T13:06:09.877Z,100186.84
2023-04-09T13:08:12.471Z,100193.88
2023-04-09T13:10:15.047Z,100190.75
2023-04-09T13:12:17.889Z,100189.50
2023-04-09T13:14:20.618Z,100185.94
2023-04-09T13:16:23.222Z,100184.75
2023-04-09T13:18:25.848Z,100187.03
2023-04-09T13:20:30.839Z,100189.50
2023-04-09T13:22:33.538Z,100185.09
2023-04-09T13:24:36.439Z,100186.53
2023-04-09T13:26:38.998Z,100184.47
2023-04-09T13:28:41.838Z,100180.78
2023-04-09T13:30:44.574Z,100180.34
2023-04-09T13:32:47.268Z,100184.31
2023-04-09T13:34:50.120Z,100184.13
2023-04-09T13:36:54.200Z,100181.22
2023-04-09T13:38:56.863Z,100182.69
2023-04-09T13:40:59.514Z,100185.59
2023-04-09T13:43:02.105Z,100186.63
2023-04-09T13:45:05.087Z,100179.81
2023-04-09T13:47:08.042Z,100195.31
2023-04-09T13:49:10.558Z,100178.97
2023-04-09T13:51:13.367Z,100186.00
2023-04-09T13:53:17.452Z,100177.75
2023-04-09T13:55:20.288Z,100182.06
2023-04-09T13:57:22.758Z,100176.03
2023-04-09T13:59:25.599Z,100178.91
2023-04-09T14:01:28.576Z,100172.13
2023-04-09T14:03:31.271Z,100175.97
2023-04-09T14:05:33.848Z,100178.69
2023-04-09T14:07:36.917Z,100180.19
2023-04-09T14:09:40.939Z,100183.06
2023-04-09T14:11:43.475Z,100172.94
2023-04-09T14:13:46.325Z,100173.13
2023-04-09T14:15:50.410Z,100180.38
2023-04-09T14:17:52.896Z,100179.13
2023-04-09T14:19:55.634Z,100169.81
2023-04-09T14:21:58.235Z,100170.66
2023-04-09T14:24:00.917Z,100169.03
2023-04-09T14:26:06.396Z,100163.59
2023-04-09T14:28:08.948Z,100165.09
2023-04-09T14:30:11.938Z,100165.50
2023-04-09T14:32:14.545Z,100164.44
2023-04-09T14:34:17.027Z,100162.59
2023-04-09T14:36:19.544Z,100163.22
2023-04-09T14:38:22.276Z,100148.72
2023-04-09T14:40:24.814Z,100150.81
2023-04-09T14:42:28.745Z,100143.75
2023-04-09T14:44:32.037Z,100141.28
2023-04-09T14:46:34.611Z,100143.75
2023-04-09T14:48:37.066Z,100138.34
2023-04-09T14:50:39.603Z,100136.09
2023-04-09T14:52:42.507Z,100141.72
2023-04-09T14:54:45.118Z,100141.72
2023-04-09T14:56:47.689Z,100142.75
2023-04-09T14:58:52.299Z,100142.56
2023-04-09T15:00:55.156Z,100140.91
2023-04-09T15:02:57.999Z,100141.91
2023-04-09T15:05:01.134Z,100137.81
2023-04-09T15:07:03.588Z,100144.22
2023-04-09T15:09:06.181Z,100142.56
2023-04-09T15:11:10.162Z,100150.00
2023-04-09T15:13:12.650Z,100142.97
2023-04-09T15:15:16.662Z,100146.91
2023-04-09T15:17:19.368Z,100146.50
2023-04-09T15:19:21.850Z,100148.56
2023-04-09T15:21:24.588Z,100150.84
2023-04-09T15:23:27.287Z,100144.41
2023-04-09T15:25:29.877Z,100149.16
2023-04-09T15:27:32.587Z,100144.41
2023-04-09T15:29:35.156Z,100145.66
2023-04-09T15:31:41.300Z,100141.09
2023-04-09T15:33:45.277Z,100152.25
2023-04-09T15:35:48.073Z,100145.84
2023-04-09T15:37:50.656Z,100152.06
2023-04-09T15:39:53.298Z,100156.22
2023-04-09T15:41:58.541Z,100154.78
2023-04-09T15:44:01.058Z,100153.72
2023-04-09T15:46:07.789Z,100156.84
2023-04-09T15:48:11.900Z,100157.03
2023-04-09T15:50:15.015Z,100163.69
2023-04-09T15:52:17.453Z,100167.41
2023-04-09T15:54:20.144Z,100170.25
2023-04-09T15:56:22.667Z,100176.25
2023-04-09T15:58:25.409Z,100167.31
2023-04-09T16:00:28.099Z,100171.84
2023-04-09T16:02:30.735Z,100174.13
2023-04-09T16:04:34.661Z,100179.25
2023-04-09T16:06:38.101Z,100172.22
2023-04-09T16:08:40.551Z,100172.44
2023-04-09T16:10:43.093Z,100169.69
2023-04-09T16:12:45.809Z,100175.44
2023-04-09T16:14:48.322Z,100182.91
2023-04-09T16:16:51.528Z,100184.00
2023-04-09T16:18:54.879Z,100181.44
2023-04-09T16:20:59.040Z,100185.72
2023-04-09T16:23:01.760Z,100176.06
2023-04-09T16:25:04.444Z,100179.28
2023-04-09T16:27:07.020Z,100177.41
2023-04-09T16:29:09.869Z,100187.50
2023-04-09T16:31:12.541Z,100181.72
2023-04-09T16:33:15.120Z,100179.56
2023-04-09T16:35:17.924Z,100184.28
2023-04-09T16:37:21.990Z,100182.03
2023-04-09T16:39:24.579Z,100185.91
2023-04-09T16:41:27.163Z,100185.91
2023-04-09T16:43:30.588Z,100190.91
2023-04-09T16:45:33.348Z,100188.81
2023-04-09T16:47:36.336Z,100184.47
2023-04-09T16:49:38.958Z,100182.38
2023-04-09T16:51:41.685Z,100174.91
2023-04-09T16:53:45.997Z,100180.56
2023-04-09T16:55:49.455Z,100176.31
2023-04-09T16:57:52.114Z,100180.53
2023-04-09T16:59:54.699Z,100180.09
2023-04-09T17:01:57.430Z,100181.13
2023-04-09T17:04:01.204Z,100173.97
2023-04-09T17:06:05.077Z,100176.19
2023-04-09T17:08:07.739Z,100182.09
2023-04-09T17:10:12.175Z,100187.22
2023-04-09T17:12:14.922Z,100179.84
2023-04-09T17:14:17.663Z,100185.53
2023-04-09T17:16:20.178Z,100188.50
2023-04-09T17:18:22.866Z,100193.34
2023-04-09T17:20:26.416Z,100192.69
2023-04-09T17:22:28.875Z,100193.50
2023-04-09T17:24:31.459Z,100190.34
2023-04-09T17:26:35.614Z,100193.03
2023-04-09T17:28:38.153Z,100196.50
2023-04-09T17:30:40.670Z,100202.50
2023-04-09T17:32:44.715Z,100200.66
2023-04-09T17:34:47.477Z,100208.56
2023-04-09T17:36:56.036Z,100216.63
2023-04-09T17:38:58.577Z,100216.34
2023-04-09T17:41:01.413Z,100219.84
2023-04-09T17:43:05.446Z,100223.09
2023-04-09T17:45:08.922Z,100227.84
2023-04-09T17:47:11.961Z,100226.81
2023-04-09T17:49:14.647Z,100234.16
2023-04-09T17:51:19.091Z,100234.50
2023-04-09T17:53:21.685Z,100233.72
2023-04-09T17:55:24.396Z,100241.94
2023-04-09T17:57:27.091Z,100242.19
2023-04-09T17:59:31.399Z,100239.16
2023-04-09T18:01:34.124Z,100244.88
2023-04-09T18:03:37.081Z,100247.09
2023-04-09T18:05:39.839Z,100241.56
2023-04-09T18:07:42.521Z,100250.44
2023-04-09T18:09:45.396Z,100248.50
2023-04-09T18:11:49.273Z,100246.28
2023-04-09T18:13:51.879Z,100251.44
2023-04-09T18:15:55.993Z,100258.34
2023-04-09T18:17:59.571Z,100254.84
2023-04-09T18:20:02.426Z,100253.28
2023-04-09T18:22:04.931Z,100260.94
2023-04-09T18:24:08.178Z,100260.38
2023-04-09T18:26:10.957Z,100272.72
2023-04-09T18:28:13.394Z,100264.53
2023-04-09T18:30:15.925Z,100269.50
2023-04-09T18:32:19.998Z,100272.66
2023-04-09T18:34:22.712Z,100270.63
2023-04-09T18:36:25.087Z,100274.13
2023-04-09T18:38:29.021Z,100279.56
2023-04-09T18:40:31.394Z,100268.69
2023-04-09T18:42:33.924Z,100268.59
2023-04-09T18:44:39.253Z,100269.44
2023-04-09T18:46:41.842Z,100278.06
2023-04-09T18:48:47.323Z,100269.78
2023-04-09T18:50:49.876Z,100272.72
2023-04-09T18:52:52.403Z,100272.72
2023-04-09T18:54:55.046Z,100274.13
2023-04-09T18:56:57.779Z,100264.09
2023-04-09T18:59:00.796Z,100272.72
2023-04-09T19:01:09.898Z,100268.69
2023-04-09T19:03:12.697Z,100278.84
2023-04-09T19:05:17.761Z,100277.66
2023-04-09T19:07:20.523Z,100280.66
2023-04-09T19:09:23.609Z,100281.31
2023-04-09T19:11:26.485Z,100282.81
2023-04-09T19:13:28.923Z,100284.06
2023-04-09T19:15:31.565Z,100286.28
2023-04-09T19:17:34.504Z,100285.63
2023-04-09T19:19:37.631Z,100276.44
2023-04-09T19:21:41.624Z,100275.50
2023-04-09T19:23:45.845Z,100281.31
2023-04-09T19:25:50.484Z,100280.19
2023-04-09T19:27:54.487Z,100291.06
2023-04-09T19:29:59.124Z,100289.41
2023-04-09T19:32:01.807Z,100284.41
2023-04-09T19:34:06.318Z,100284.53
2023-04-09T19:36:08.983Z,100281.84
2023-04-09T19:38:13.101Z,100286.34
2023-04-09T19:40:17.232Z,100294.38
2023-04-09T19:42:19.752Z,100289.13
2023-04-09T19:44:22.289Z,100286.63
2023-04-09T19:46:24.860Z,100288.09
2023-04-09T19:48:27.448Z,100287.25
2023-04-09T19:50:29.920Z,100286.63
2023-04-09T19:52:32.518Z,100283.94
2023-04-09T19:54:37.157Z,100290.13
2023-04-09T19:56:39.757Z,100288.81
2023-04-09T19:58:43.465Z,100288.25
2023-04-09T20:00:46.160Z,100281.53
2023-04-09T20:02:48.903Z,100287.06
2023-04-09T20:04:52.699Z,100283.34
2023-04-09T20:06:55.715Z,100286.69
2023-04-09T20:08:58.247Z,100283.72
2023-04-09T20:11:02.353Z,100284.19
2023-04-09T20:13:06.007Z,100289.53
2023-04-09T20:15:09.911Z,100289.06
2023-04-09T20:17:13.876Z,100287.13
2023-04-09T20:19:16.368Z,100290.81
2023-04-09T20:21:19.363Z,100292.00
2023-04-09T20:23:21.836Z,100292.47
2023-04-09T20:25:24.600Z,100290.50
2023-04-09T20:27:28.967Z,100283.19
2023-04-09T20:29:31.597Z,100287.88
2023-04-09T20:31:35.362Z,100290.50
2023-04-09T20:33:38.247Z,100297.53
2023-04-09T20:35:40.738Z,100295.66
2023-04-09T20:37:43.420Z,100292.06
2023-04-09T20:39:45.960Z,100296.69
2023-04-09T20:41:48.668Z,100295.56
2023-04-09T20:43:53.067Z,100296.75
2023-04-09T20:45:55.811Z,100297.94
2023-04-09T20:47:58.365Z,100291.78
2023-04-09T20:50:01.529Z,100293.25
2023-04-09T20:52:04.083Z,100294.44
2023-04-09T20:54:07.095Z,100291.22
2023-04-09T20:56:09.692Z,100284.69
2023-04-09T20:58:12.915Z,100296.16
2023-04-09T21:00:16.871Z,100295.16
2023-04-09T21:02:19.769Z,100286.31
2023-04-09T21:04:22.461Z,100289.81
2023-04-09T21:06:25.064Z,100293.94
2023-04-09T21:08:27.652Z,100298.13
2023-04-09T21:10:30.189Z,100286.13
2023-04-09T21:12:33.792Z,100287.97
2023-04-09T21:14:36.385Z,100294.31
2023-04-09T21:16:40.412Z,100296.16
2023-04-09T21:18:42.994Z,100299.66
2023-04-09T21:20:46.477Z,100291.66
2023-04-09T21:22:48.940Z,100297.84
2023-04-09T21:24:52.230Z,100300.84
2023-04-09T21:26:54.818Z,100303.69
2023-04-09T21:28:57.292Z,100305.00
2023-04-09T21:31:00.112Z,100310.16
2023-04-09T21:33:04.830Z,100303.00
2023-04-09T21:35:07.849Z,100298.47
2023-04-09T21:37:10.309Z,100299.00
2023-04-09T21:39:12.893Z,100305.38
2023-04-09T21:41:15.337Z,100297.16
2023-04-09T21:43:17.855Z,100298.34
2023-04-09T21:45:20.293Z,100298.34
2023-04-09T21:47:23.175Z,100309.69
2023-04-09T21:49:27.628Z,100310.59
2023-04-09T21:51:30.233Z,100309.41
2023-04-09T21:53:32.956Z,100305.91
2023-04-09T21:55:37.450Z,100306.38
2023-04-09T21:57:39.843Z,100300.84
2023-04-09T21:59:42.486Z,100306.19
2023-04-09T22:01:46.044Z,100309.28
2023-04-09T22:03:50.341Z,100307.13
2023-04-09T22:05:54.451Z,100308.63
2023-04-09T22:07:57.059Z,100305.94
2023-04-09T22:09:59.568Z,100310.16
2023-04-09T22:12:05.157Z,100308.84
2023-04-09T22:14:07.568Z,100305.47
2023-04-09T22:16:10.088Z,100302.28
2023-04-09T22:18:12.588Z,100304.94
2023-04-09T22:20:15.187Z,100300.59
2023-04-09T22:22:19.182Z,100301.63
2023-04-09T22:24:27.377Z,100302.44
2023-04-09T22:26:29.842Z,100302.63
2023-04-09T22:28:32.348Z,100298.28
2023-04-09T22:30:34.800Z,100303.09
2023-04-09T22:32:37.438Z,100293.25
2023-04-09T22:34:39.886Z,100290.75
2023-04-09T22:36:42.435Z,100292.59
2023-04-09T22:38:46.464Z,100288.75
2023-04-09T22:40:49.289Z,100297.41
2023-04-09T22:42:52.064Z,100294.75
2023-04-09T22:44:54.722Z,100291.69
2023-04-09T22:46:57.336Z,100293.53
2023-04-09T22:49:04.908Z,100284.72
2023-04-09T22:51:08.368Z,100292.06
2023-04-09T22:53:10.913Z,100292.88
2023-04-09T22:55:15.106Z,100290.56
2023-04-09T22:57:17.600Z,100291.31
2023-04-09T22:59:23.034Z,100282.78
2023-04-09T23:01:27.802Z,100287.75
2023-04-09T23:03:30.693Z,100295.63
2023-04-09T23:05:33.552Z,100295.78
2023-04-09T23:07:36.143Z,100283.44
2023-04-09T23:09:38.821Z,100282.41
2023-04-09T23:11:42.713Z,100298.13
2023-04-09T23:13:45.354Z,100285.75
2023-04-09T23:15:47.922Z,100290.09
2023-04-09T23:17:51.463Z,100290.28
2023-04-09T23:19:53.957Z,100290.09
2023-04-09T23:21:56.519Z,100290.94
2023-04-09T23:23:59.023Z,100291.75
2023-04-09T23:26:02.021Z,100294.41
2023-04-09T23:28:06.175Z,100294.41
2023-04-09T23:30:09.746Z,100294.59
2023-04-09T23:32:12.226Z,100286.78
2023-04-09T23:34:14.779Z,100290.28